Norrskar — SGFD — position and weather

sailwx.info

Track history (hours):
 
Tides and Currents Weather Stations Pressure Air Temp Water Temp Dewpoint Dewpoint Depression Visibility Wind Speed Wind Dir Waves Ship Positions

Norrskar

Last reported at 2014-Jul-31 15:31 UTC. Time now 2014-Jul-31 15:40 UTC.
Position N 59°20' E 018°05'.

Length 35 m; draft 3 m.

Type: Passenger vessel. MMSI: 265522430.

Date/timePositionNaut miles runAvg speedWind from/ knotsBaromVisibWave heightAir tempDewpointWater temp
2014-Jul-31 15:31N 59°20' E 018°05'7 6.6
2014-Jul-31 14:25N 59°23' E 018°17'4 0.8
2014-Jul-31 09:26N 59°20' E 018°12'4 3.4
2014-Jul-31 08:23N 59°20' E 018°05'0 0.0
2014-Jul-31 03:28N 59°20' E 018°05'0 0.0
2014-Jul-31 00:29N 59°20' E 018°05'0 0.0
2014-Jul-30 21:13N 59°20' E 018°05'0 0.0
2014-Jul-30 20:32N 59°20' E 018°05'3 3.0
2014-Jul-30 19:32N 59°20' E 018°10'2 0.6
2014-Jul-30 16:09N 59°19' E 018°07'1 1.5
2014-Jul-30 15:22N 59°20' E 018°05'3 0.5
2014-Jul-30 09:24N 59°20' E 018°11'3 3.4
2014-Jul-30 08:28N 59°20' E 018°05'0 0.0
2014-Jul-30 04:15N 59°20' E 018°05'0 0.0
2014-Jul-30 03:11N 59°20' E 018°05'0 0.0
2014-Jul-30 02:20N 59°20' E 018°05'0 0.0
2014-Jul-30 01:21N 59°20' E 018°05'0 0.0
2014-Jul-30 00:11N 59°20' E 018°05'0 0.0
2014-Jul-29 23:18N 59°20' E 018°05'0 0.0
2014-Jul-29 22:21N 59°20' E 018°05'0 0.0
2014-Jul-29 21:04N 59°20' E 018°05'0 0.0
2014-Jul-29 20:12N 59°20' E 018°05'3 0.9
2014-Jul-29 16:26N 59°20' E 018°11'3 3.3
2014-Jul-29 15:22N 59°20' E 018°05'1 0.1
2014-Jul-29 09:07N 59°19' E 018°06'1 0.4
2014-Jul-29 07:04N 59°20' E 018°05'0 0.0
2014-Jul-29 06:33N 59°20' E 018°05'0 0.0
2014-Jul-29 05:28N 59°20' E 018°05'0 0.0
2014-Jul-28 20:12N 59°20' E 018°05'2 0.6
2014-Jul-28 16:17N 59°19' E 018°09'2 3.1
2014-Jul-28 15:33N 59°20' E 018°05'2 0.3
2014-Jul-28 09:17N 59°19' E 018°09'2 0.5
2014-Jul-28 05:13N 59°20' E 018°05'0 0.0
2014-Jul-28 03:12N 59°20' E 018°05'0 0.0
2014-Jul-28 02:25N 59°20' E 018°05'0 0.0
2014-Jul-28 01:28N 59°20' E 018°05'0 0.0
2014-Jul-28 00:11N 59°20' E 018°05'0 0.0
2014-Jul-27 23:33N 59°20' E 018°05'0 0.0
2014-Jul-27 22:21N 59°20' E 018°05'0 0.0
2014-Jul-27 21:08N 59°20' E 018°05'0 0.0
2014-Jul-27 20:28N 59°20' E 018°05'0 0.0
2014-Jul-27 18:20N 59°20' E 018°05'1 1.3
2014-Jul-27 17:33N 59°19' E 018°06'1 0.1
2014-Jul-27 08:32N 59°19' E 018°05'3 0.2
2014-Jul-26 17:31N 59°20' E 018°11'5 0.7
2014-Jul-26 09:33N 59°23' E 018°20'8 8.3
2014-Jul-26 08:32N 59°19' E 018°05'0 0.1
2014-Jul-26 05:31N 59°20' E 018°05'0 0.0
2014-Jul-26 01:04N 59°20' E 018°05'0 0.0
2014-Jul-25 22:12N 59°20' E 018°05'0 0.0
2014-Jul-25 21:31N 59°20' E 018°05'0 0.0
2014-Jul-25 20:31N 59°20' E 018°05'2 2.2
2014-Jul-25 19:33N 59°19' E 018°09'1 0.4
2014-Jul-25 16:25N 59°20' E 018°11'3 3.3
2014-Jul-25 15:25N 59°20' E 018°05'3 0.6
2014-Jul-25 09:25N 59°20' E 018°11'3 3.9
2014-Jul-25 08:33N 59°20' E 018°05'0 0.0
2014-Jul-25 07:33N 59°20' E 018°05'0 0.0
2014-Jul-25 06:30N 59°20' E 018°05'0 0.0
2014-Jul-25 05:33N 59°20' E 018°05'0 0.0
2014-Jul-25 04:33N 59°20' E 018°05'0 0.0
2014-Jul-25 03:33N 59°20' E 018°05'0 0.0
2014-Jul-25 02:33N 59°20' E 018°05'0 0.0
2014-Jul-25 01:33N 59°20' E 018°05'0 0.0
2014-Jul-25 00:33N 59°20' E 018°05'0 0.0
2014-Jul-24 23:33N 59°20' E 018°05'0 0.0
2014-Jul-24 22:33N 59°20' E 018°05'0 0.0
2014-Jul-24 21:32N 59°20' E 018°05'0 0.0
2014-Jul-24 20:32N 59°20' E 018°05'2 2.4
2014-Jul-24 19:33N 59°19' E 018°09'1 0.3
2014-Jul-24 16:25N 59°20' E 018°11'3 3.3
2014-Jul-24 15:27N 59°20' E 018°05'3 0.5
2014-Jul-24 09:22N 59°19' E 018°11'3 3.3
2014-Jul-24 08:27N 59°20' E 018°05'0 0.0
2014-Jul-24 07:27N 59°20' E 018°05'0 0.0
2014-Jul-24 06:33N 59°20' E 018°05'0 0.0
2014-Jul-24 05:33N 59°20' E 018°05'0 0.0
2014-Jul-24 04:22N 59°20' E 018°05'0 0.0
2014-Jul-24 03:13N 59°20' E 018°05'0 0.0
2014-Jul-24 02:29N 59°20' E 018°05'0 0.0
2014-Jul-24 01:29N 59°20' E 018°05'0 0.0
2014-Jul-24 00:26N 59°20' E 018°05'0 0.0
2014-Jul-23 23:30N 59°20' E 018°05'0 0.0
2014-Jul-23 21:31N 59°20' E 018°05'3 1.5
2014-Jul-23 19:28N 59°20' E 018°11'2 0.6
2014-Jul-23 16:10N 59°19' E 018°07'1 1.8
2014-Jul-23 15:29N 59°20' E 018°05'2 0.4
2014-Jul-23 09:17N 59°19' E 018°09'2 1.2
2014-Jul-23 07:25N 59°20' E 018°05'0 0.0
2014-Jul-23 06:23N 59°20' E 018°05'3 0.2
2014-Jul-22 19:32N 59°19' E 018°10'0 0.1
2014-Jul-22 16:16N 59°19' E 018°09'2 2.4
2014-Jul-22 15:21N 59°20' E 018°05'7 7.1
2014-Jul-22 14:21N 59°23' E 018°17'5 0.9
2014-Jul-22 09:23N 59°20' E 018°11'3 3.4
2014-Jul-22 08:28N 59°20' E 018°05'0 0.0
2014-Jul-22 06:23N 59°20' E 018°05'0 0.0
2014-Jul-22 05:33N 59°20' E 018°05'1 0.1
2014-Jul-21 19:33N 59°19' E 018°07'0 0.1
2014-Jul-21 16:07N 59°19' E 018°06'  
Track history (hours):
 
Tides and Currents Weather Stations Pressure Air Temp Water Temp Dewpoint Dewpoint Depression Visibility Wind Speed Wind Dir Waves Ship Positions

Norrskar

Last reported at 2014-Jul-31 15:31 UTC. Time now 2014-Jul-31 15:40 UTC.
Position N 59°20' E 018°05'.

Length 35 m; draft 3 m.

Type: Passenger vessel. MMSI: 265522430.

Date/timePositionNaut miles runAvg speedWind from/ knotsBaromVisibWave heightAir tempDewpointWater temp
2014-Jul-31 15:31N 59°20' E 018°05'7 6.6
2014-Jul-31 14:25N 59°23' E 018°17'4 0.8
2014-Jul-31 09:26N 59°20' E 018°12'4 3.4
2014-Jul-31 08:23N 59°20' E 018°05'0 0.0
2014-Jul-31 03:28N 59°20' E 018°05'0 0.0
2014-Jul-31 00:29N 59°20' E 018°05'0 0.0
2014-Jul-30 21:13N 59°20' E 018°05'0 0.0
2014-Jul-30 20:32N 59°20' E 018°05'3 3.0
2014-Jul-30 19:32N 59°20' E 018°10'2 0.6
2014-Jul-30 16:09N 59°19' E 018°07'1 1.5
2014-Jul-30 15:22N 59°20' E 018°05'3 0.5
2014-Jul-30 09:24N 59°20' E 018°11'3 3.4
2014-Jul-30 08:28N 59°20' E 018°05'0 0.0
2014-Jul-30 04:15N 59°20' E 018°05'0 0.0
2014-Jul-30 03:11N 59°20' E 018°05'0 0.0
2014-Jul-30 02:20N 59°20' E 018°05'0 0.0
2014-Jul-30 01:21N 59°20' E 018°05'0 0.0
2014-Jul-30 00:11N 59°20' E 018°05'0 0.0
2014-Jul-29 23:18N 59°20' E 018°05'0 0.0
2014-Jul-29 22:21N 59°20' E 018°05'0 0.0
2014-Jul-29 21:04N 59°20' E 018°05'0 0.0
2014-Jul-29 20:12N 59°20' E 018°05'3 0.9
2014-Jul-29 16:26N 59°20' E 018°11'3 3.3
2014-Jul-29 15:22N 59°20' E 018°05'1 0.1
2014-Jul-29 09:07N 59°19' E 018°06'1 0.4
2014-Jul-29 07:04N 59°20' E 018°05'0 0.0
2014-Jul-29 06:33N 59°20' E 018°05'0 0.0
2014-Jul-29 05:28N 59°20' E 018°05'0 0.0
2014-Jul-28 20:12N 59°20' E 018°05'2 0.6
2014-Jul-28 16:17N 59°19' E 018°09'2 3.1
2014-Jul-28 15:33N 59°20' E 018°05'2 0.3
2014-Jul-28 09:17N 59°19' E 018°09'2 0.5
2014-Jul-28 05:13N 59°20' E 018°05'0 0.0
2014-Jul-28 03:12N 59°20' E 018°05'0 0.0
2014-Jul-28 02:25N 59°20' E 018°05'0 0.0
2014-Jul-28 01:28N 59°20' E 018°05'0 0.0
2014-Jul-28 00:11N 59°20' E 018°05'0 0.0
2014-Jul-27 23:33N 59°20' E 018°05'0 0.0
2014-Jul-27 22:21N 59°20' E 018°05'0 0.0
2014-Jul-27 21:08N 59°20' E 018°05'0 0.0
2014-Jul-27 20:28N 59°20' E 018°05'0 0.0
2014-Jul-27 18:20N 59°20' E 018°05'1 1.3
2014-Jul-27 17:33N 59°19' E 018°06'1 0.1
2014-Jul-27 08:32N 59°19' E 018°05'3 0.2
2014-Jul-26 17:31N 59°20' E 018°11'5 0.7
2014-Jul-26 09:33N 59°23' E 018°20'8 8.3
2014-Jul-26 08:32N 59°19' E 018°05'0 0.1
2014-Jul-26 05:31N 59°20' E 018°05'0 0.0
2014-Jul-26 01:04N 59°20' E 018°05'0 0.0
2014-Jul-25 22:12N 59°20' E 018°05'0 0.0
2014-Jul-25 21:31N 59°20' E 018°05'0 0.0
2014-Jul-25 20:31N 59°20' E 018°05'2 2.2
2014-Jul-25 19:33N 59°19' E 018°09'1 0.4
2014-Jul-25 16:25N 59°20' E 018°11'3 3.3
2014-Jul-25 15:25N 59°20' E 018°05'3 0.6
2014-Jul-25 09:25N 59°20' E 018°11'3 3.9
2014-Jul-25 08:33N 59°20' E 018°05'0 0.0
2014-Jul-25 07:33N 59°20' E 018°05'0 0.0
2014-Jul-25 06:30N 59°20' E 018°05'0 0.0
2014-Jul-25 05:33N 59°20' E 018°05'0 0.0
2014-Jul-25 04:33N 59°20' E 018°05'0 0.0
2014-Jul-25 03:33N 59°20' E 018°05'0 0.0
2014-Jul-25 02:33N 59°20' E 018°05'0 0.0
2014-Jul-25 01:33N 59°20' E 018°05'0 0.0
2014-Jul-25 00:33N 59°20' E 018°05'0 0.0
2014-Jul-24 23:33N 59°20' E 018°05'0 0.0
2014-Jul-24 22:33N 59°20' E 018°05'0 0.0
2014-Jul-24 21:32N 59°20' E 018°05'0 0.0
2014-Jul-24 20:32N 59°20' E 018°05'2 2.4
2014-Jul-24 19:33N 59°19' E 018°09'1 0.3
2014-Jul-24 16:25N 59°20' E 018°11'3 3.3
2014-Jul-24 15:27N 59°20' E 018°05'3 0.5
2014-Jul-24 09:22N 59°19' E 018°11'3 3.3
2014-Jul-24 08:27N 59°20' E 018°05'0 0.0
2014-Jul-24 07:27N 59°20' E 018°05'0 0.0
2014-Jul-24 06:33N 59°20' E 018°05'0 0.0
2014-Jul-24 05:33N 59°20' E 018°05'0 0.0
2014-Jul-24 04:22N 59°20' E 018°05'0 0.0
2014-Jul-24 03:13N 59°20' E 018°05'0 0.0
2014-Jul-24 02:29N 59°20' E 018°05'0 0.0
2014-Jul-24 01:29N 59°20' E 018°05'0 0.0
2014-Jul-24 00:26N 59°20' E 018°05'0 0.0
2014-Jul-23 23:30N 59°20' E 018°05'0 0.0
2014-Jul-23 21:31N 59°20' E 018°05'3 1.5
2014-Jul-23 19:28N 59°20' E 018°11'2 0.6
2014-Jul-23 16:10N 59°19' E 018°07'1 1.8
2014-Jul-23 15:29N 59°20' E 018°05'2 0.4
2014-Jul-23 09:17N 59°19' E 018°09'2 1.2
2014-Jul-23 07:25N 59°20' E 018°05'0 0.0
2014-Jul-23 06:23N 59°20' E 018°05'3 0.2
2014-Jul-22 19:32N 59°19' E 018°10'0 0.1
2014-Jul-22 16:16N 59°19' E 018°09'2 2.4
2014-Jul-22 15:21N 59°20' E 018°05'7 7.1
2014-Jul-22 14:21N 59°23' E 018°17'5 0.9
2014-Jul-22 09:23N 59°20' E 018°11'3 3.4
2014-Jul-22 08:28N 59°20' E 018°05'0 0.0
2014-Jul-22 06:23N 59°20' E 018°05'0 0.0
2014-Jul-22 05:33N 59°20' E 018°05'1 0.1
2014-Jul-21 19:33N 59°19' E 018°07'0 0.1
2014-Jul-21 16:07N 59°19' E 018°06'  

Dump ship's entire track history